Time;durP1;ratioP1;P1;durP2;ratioP2;P2;SDS_P1;SDS_P2;PMS_P1;PMS_P2;Temp;Humidity;BMP_temperature;BMP_pressure;BME280_temperature;BME280_humidity;BME280_pressure;Samples;Min_cycle;Max_cycle;Signal;HPM_P1;HPM_P2
2023/04/06 00:01:25;;;;;;;2.03;1.90;;;0.50;85.40;;;;;;6151791;28;20078;-75
2023/04/06 00:04:26;;;;;;;2.23;2.10;;;0.50;86.30;;;;;;6151421;28;20051;-75
2023/04/06 00:07:29;;;;;;;5.03;2.10;;;0.40;85.70;;;;;;6151501;28;20186;-75
2023/04/06 00:10:32;;;;;;;2.20;2.00;;;0.40;86.20;;;;;;6151808;28;20506;-76
2023/04/06 00:13:34;;;;;;;2.30;2.10;;;0.40;86.30;;;;;;6151908;28;20087;-75
2023/04/06 00:16:36;;;;;;;1.90;1.80;;;0.30;86.40;;;;;;6151391;28;20047;-75
2023/04/06 00:19:38;;;;;;;1.90;1.80;;;0.20;86.80;;;;;;6164546;28;20072;-76
2023/04/06 00:22:40;;;;;;;2.13;2.03;;;0.20;87.20;;;;;;6175333;28;20734;-75
2023/04/06 00:25:43;;;;;;;1.70;1.60;;;0.20;87.30;;;;;;6174535;28;20138;-75
2023/04/06 00:28:45;;;;;;;2.57;2.37;;;0.10;87.50;;;;;;6157649;28;20449;-75
2023/04/06 00:31:46;;;;;;;1.90;1.80;;;0.00;87.90;;;;;;6151033;28;20494;-75
2023/04/06 00:34:48;;;;;;;2.03;1.93;;;0.00;88.50;;;;;;6150067;28;20527;-75
2023/04/06 00:37:50;;;;;;;3.17;2.90;;;0.10;88.80;;;;;;6151503;28;20535;-75
2023/04/06 00:40:53;;;;;;;2.23;2.07;;;0.10;88.90;;;;;;6150986;28;20470;-75
2023/04/06 00:43:55;;;;;;;2.17;2.07;;;0.10;89.00;;;;;;6150683;28;20194;-75
2023/04/06 00:46:57;;;;;;;1.93;1.77;;;-0.10;89.30;;;;;;6150790;28;20047;-75
2023/04/06 00:49:59;;;;;;;2.20;2.10;;;-0.10;90.00;;;;;;6163926;28;20141;-75
2023/04/06 00:53:01;;;;;;;2.37;2.27;;;-0.10;90.00;;;;;;6174798;28;20051;-75
2023/04/06 00:56:04;;;;;;;2.43;2.20;;;-0.20;90.20;;;;;;6174108;28;20065;-76
2023/04/06 00:59:06;;;;;;;2.43;2.23;;;-0.20;90.20;;;;;;6175023;28;20180;-75
2023/04/06 01:02:09;;;;;;;1.93;1.83;;;-0.10;90.40;;;;;;6174601;28;20050;-75
2023/04/06 01:05:11;;;;;;;2.70;2.50;;;-0.20;90.30;;;;;;6174610;28;20062;-76
2023/04/06 01:08:12;;;;;;;2.80;2.60;;;-0.20;90.60;;;;;;6174044;28;20053;-76
2023/04/06 01:11:16;;;;;;;2.00;1.90;;;-0.30;90.70;;;;;;6167480;28;20066;-75
2023/04/06 01:14:17;;;;;;;2.00;1.90;;;-0.40;90.80;;;;;;6149866;28;20126;-76
2023/04/06 01:17:19;;;;;;;2.40;2.20;;;-0.40;91.10;;;;;;6184434;23;20060;-79
2023/04/06 01:20:21;;;;;;;2.33;2.13;;;-0.40;91.20;;;;;;6208244;28;20416;-78
2023/04/06 01:23:24;;;;;;;2.63;2.43;;;-0.40;91.40;;;;;;6201418;28;20104;-78
2023/04/06 01:26:26;;;;;;;1.70;1.60;;;-0.40;91.50;;;;;;6201999;28;20173;-78
2023/04/06 01:29:28;;;;;;;2.07;1.87;;;-0.40;91.70;;;;;;6201575;28;20141;-78
2023/04/06 01:32:30;;;;;;;3.10;2.80;;;-0.40;91.70;;;;;;6210741;28;20104;-78
2023/04/06 01:35:32;;;;;;;2.03;1.90;;;-0.50;91.90;;;;;;6203735;28;20169;-78
2023/04/06 01:38:35;;;;;;;2.40;2.20;;;-0.50;92.10;;;;;;6202615;28;20132;-78
2023/04/06 01:41:37;;;;;;;2.13;2.03;;;-0.40;92.20;;;;;;6203664;28;20054;-79
2023/04/06 01:44:39;;;;;;;2.07;1.87;;;-0.40;92.30;;;;;;6202516;28;20173;-78
2023/04/06 01:47:41;;;;;;;2.90;2.60;;;-0.40;92.50;;;;;;6202078;28;20049;-79
2023/04/06 01:50:43;;;;;;;2.00;1.90;;;-0.40;92.60;;;;;;6214708;28;20074;-78
2023/04/06 01:53:48;;;;;;;2.53;2.30;;;-0.40;92.70;;;;;;6200642;28;20133;-78
2023/04/06 01:56:51;;;;;;;3.13;2.87;;;-0.50;92.90;;;;;;6199926;28;20043;-78
2023/04/06 01:59:53;;;;;;;2.10;1.87;;;-0.40;93.00;;;;;;6199745;28;20078;-77
2023/04/06 02:02:54;;;;;;;2.60;2.37;;;-0.50;93.10;;;;;;6200433;28;20547;-79
2023/04/06 02:05:56;;;;;;;2.27;2.07;;;-0.50;93.20;;;;;;6200487;28;20580;-80
2023/04/06 02:08:59;;;;;;;2.57;2.37;;;-0.50;93.30;;;;;;6202331;28;20130;-80
2023/04/06 02:12:01;;;;;;;2.90;2.10;;;-0.50;93.50;;;;;;6202292;28;20554;-80
2023/04/06 02:15:03;;;;;;;2.20;1.80;;;-0.50;93.60;;;;;;6201770;28;20129;-80
2023/04/06 02:18:05;;;;;;;2.10;2.00;;;-0.60;93.60;;;;;;6205931;28;20088;-80
2023/04/06 02:21:07;;;;;;;2.03;1.93;;;-0.70;93.70;;;;;;6217985;28;20224;-79
2023/04/06 02:24:10;;;;;;;1.90;1.80;;;-0.80;93.90;;;;;;6225762;28;20050;-79
2023/04/06 02:27:12;;;;;;;1.60;1.50;;;-0.90;94.10;;;;;;6225843;28;20137;-79
2023/04/06 02:30:14;;;;;;;2.23;2.13;;;-0.90;94.20;;;;;;6225785;28;20530;-79
2023/04/06 02:33:16;;;;;;;2.00;1.90;;;-1.00;94.30;;;;;;6230968;28;20070;-78
2023/04/06 02:36:17;;;;;;;2.27;2.17;;;-1.00;94.50;;;;;;6232863;28;20127;-79
2023/04/06 02:39:21;;;;;;;2.53;2.20;;;-1.00;94.60;;;;;;6226373;28;20101;-80
2023/04/06 02:42:22;;;;;;;3.03;2.03;;;-0.90;94.70;;;;;;6226038;28;20125;-80
2023/04/06 02:45:24;;;;;;;2.67;1.87;;;-0.90;94.70;;;;;;6226737;28;20133;-78
2023/04/06 02:48:26;;;;;;;1.70;1.60;;;-0.90;94.80;;;;;;6223072;28;20677;-79
2023/04/06 02:51:28;;;;;;;1.87;1.77;;;-0.90;94.90;;;;;;6214046;28;20420;-80
2023/04/06 02:54:31;;;;;;;2.07;1.97;;;-0.90;95.00;;;;;;6207216;28;20074;-80
2023/04/06 02:57:33;;;;;;;2.47;2.27;;;-0.90;95.20;;;;;;6206681;28;20051;-79
2023/04/06 03:00:35;;;;;;;2.07;1.97;;;-0.90;95.30;;;;;;6206679;28;20050;-80
2023/04/06 03:03:37;;;;;;;2.20;2.10;;;-0.90;95.40;;;;;;6206434;28;20144;-79
2023/04/06 03:06:39;;;;;;;2.33;2.13;;;-0.90;95.50;;;;;;6206202;28;20054;-80
2023/04/06 03:09:42;;;;;;;1.80;1.70;;;-1.00;95.40;;;;;;6202486;28;20377;-80
2023/04/06 03:12:44;;;;;;;2.20;2.00;;;-1.00;95.50;;;;;;6207478;28;20125;-80
2023/04/06 03:15:46;;;;;;;2.07;1.97;;;-1.10;95.70;;;;;;6206406;28;20053;-80
2023/04/06 03:18:48;;;;;;;2.07;1.97;;;-1.10;95.70;;;;;;6216633;28;20056;-79
2023/04/06 03:21:49;;;;;;;2.10;2.00;;;-1.20;95.80;;;;;;6223227;28;20116;-80
2023/04/06 03:24:52;;;;;;;2.77;2.50;;;-1.20;95.90;;;;;;6230961;28;20056;-80
2023/04/06 03:27:54;;;;;;;2.27;2.17;;;-1.30;96.10;;;;;;6232071;28;20049;-80
2023/04/06 03:30:56;;;;;;;2.10;1.90;;;-1.30;96.10;;;;;;6232069;28;20602;-80
2023/04/06 03:33:58;;;;;;;2.53;2.40;;;-1.30;96.20;;;;;;6231390;28;20053;-79
2023/04/06 03:37:00;;;;;;;2.30;2.20;;;-1.30;96.20;;;;;;6238265;28;20419;-79
2023/04/06 03:40:05;;;;;;;2.47;2.37;;;-1.30;96.40;;;;;;6231399;28;20049;-77
2023/04/06 03:43:07;;;;;;;2.80;2.60;;;-1.30;96.50;;;;;;6229843;28;20058;-79
2023/04/06 03:46:09;;;;;;;2.47;2.33;;;-1.40;96.50;;;;;;6230156;28;20611;-80
2023/04/06 03:49:10;;;;;;;3.70;3.40;;;-1.40;96.50;;;;;;6228971;28;20089;-80
2023/04/06 03:52:12;;;;;;;2.03;1.93;;;-1.30;96.70;;;;;;6210072;28;20150;-79
2023/04/06 03:55:15;;;;;;;2.50;2.30;;;-1.40;96.70;;;;;;6207221;28;20081;-79
2023/04/06 03:58:17;;;;;;;2.50;2.40;;;-1.40;96.90;;;;;;6206014;28;20564;-79
2023/04/06 04:01:19;;;;;;;2.83;2.33;;;-1.30;97.00;;;;;;6206513;28;20193;-78
2023/04/06 04:04:21;;;;;;;1.90;1.80;;;-1.30;97.10;;;;;;6205618;28;20129;-80
2023/04/06 04:07:23;;;;;;;2.37;2.17;;;-1.30;97.20;;;;;;6206600;28;20301;-80
2023/04/06 04:10:26;;;;;;;2.33;2.03;;;-1.30;97.30;;;;;;6206111;28;20137;-80
2023/04/06 04:13:27;;;;;;;2.33;2.13;;;-1.30;97.50;;;;;;6206899;28;20576;-80
2023/04/06 04:16:29;;;;;;;5.13;2.97;;;-1.30;97.60;;;;;;6207070;28;20070;-80
2023/04/06 04:19:31;;;;;;;2.50;2.40;;;-1.30;97.80;;;;;;6225409;28;20416;-80
2023/04/06 04:22:33;;;;;;;2.30;2.07;;;-1.30;97.90;;;;;;6232409;28;20125;-79
2023/04/06 04:25:36;;;;;;;2.40;2.27;;;-1.40;97.90;;;;;;6234501;28;20684;-81
2023/04/06 04:28:38;;;;;;;2.20;2.10;;;-1.40;98.00;;;;;;6230626;28;20133;-81
2023/04/06 04:31:40;;;;;;;3.83;2.17;;;-1.50;98.20;;;;;;6230281;28;20046;-80
2023/04/06 04:34:42;;;;;;;2.30;2.20;;;-1.60;98.40;;;;;;6230900;28;20038;-81
2023/04/06 04:37:43;;;;;;;2.43;2.27;;;-1.50;98.60;;;;;;6235443;28;20100;-80
2023/04/06 04:40:47;;;;;;;2.90;2.70;;;-1.50;98.50;;;;;;6235562;28;20054;-80
2023/04/06 04:43:48;;;;;;;2.60;2.50;;;-1.40;98.70;;;;;;6232512;28;20139;-80
2023/04/06 04:46:50;;;;;;;2.63;2.43;;;-1.40;98.70;;;;;;6231556;28;20061;-81
2023/04/06 04:49:52;;;;;;;2.40;2.30;;;-1.40;98.90;;;;;;6222570;28;20056;-80
2023/04/06 04:52:54;;;;;;;2.03;1.93;;;-1.30;98.90;;;;;;6183133;28;20145;-80
2023/04/06 04:55:57;;;;;;;2.23;2.07;;;-1.30;98.90;;;;;;6181176;28;20140;-80
2023/04/06 04:58:59;;;;;;;2.30;2.10;;;-1.30;99.10;;;;;;6181150;28;20050;-80
2023/04/06 05:02:01;;;;;;;2.23;2.03;;;-1.20;99.20;;;;;;6182100;28;20141;-80
2023/04/06 05:05:02;;;;;;;3.67;2.40;;;-1.20;99.30;;;;;;6182357;28;20094;-80
2023/04/06 05:08:05;;;;;;;3.53;2.10;;;-1.20;99.40;;;;;;6181766;28;20090;-81
2023/04/06 05:11:08;;;;;;;2.83;2.63;;;-1.20;99.60;;;;;;6181051;28;20051;-81
2023/04/06 05:14:10;;;;;;;2.40;2.20;;;-1.20;99.80;;;;;;6181052;28;20135;-81
2023/04/06 05:17:12;;;;;;;2.60;2.40;;;-1.20;99.90;;;;;;6179952;28;20053;-80
2023/04/06 05:20:14;;;;;;;2.57;2.33;;;-1.10;99.90;;;;;;6213481;28;20158;-81
2023/04/06 05:23:16;;;;;;;3.37;3.07;;;-0.90;99.90;;;;;;6227124;28;20121;-80
2023/04/06 05:26:19;;;;;;;2.90;2.30;;;-0.70;99.90;;;;;;6227102;28;20077;-81
2023/04/06 05:29:21;;;;;;;2.17;2.07;;;-0.60;99.90;;;;;;6228711;28;20138;-80
2023/04/06 05:32:24;;;;;;;2.13;1.80;;;-0.60;99.90;;;;;;6227981;28;20068;-81
2023/04/06 05:35:26;;;;;;;2.50;2.40;;;-0.60;99.90;;;;;;6227756;28;20082;-81
2023/04/06 05:38:28;;;;;;;3.80;3.40;;;-0.40;99.90;;;;;;6226472;28;20618;-81
2023/04/06 05:41:31;;;;;;;3.13;2.93;;;-0.40;99.90;;;;;;6236621;28;20054;-80
2023/04/06 05:44:33;;;;;;;3.50;2.50;;;-0.20;99.90;;;;;;6225347;28;20112;-81
2023/04/06 05:47:35;;;;;;;2.17;2.07;;;-0.10;99.90;;;;;;6227906;28;20046;-80
2023/04/06 05:50:36;;;;;;;3.63;2.70;;;0.10;99.90;;;;;;6218812;28;20057;-81
2023/04/06 05:53:38;;;;;;;3.03;2.83;;;0.30;99.90;;;;;;6205147;28;20182;-79
2023/04/06 05:56:42;;;;;;;2.07;1.97;;;0.40;99.90;;;;;;6203000;28;20121;-80
2023/04/06 05:59:43;;;;;;;2.97;2.70;;;0.60;99.90;;;;;;6202943;28;20157;-80
2023/04/06 06:02:45;;;;;;;2.53;2.33;;;0.70;99.90;;;;;;6204004;28;20158;-81
2023/04/06 06:05:47;;;;;;;6.13;2.20;;;1.00;99.90;;;;;;6199948;28;20050;-77
2023/04/06 06:08:49;;;;;;;2.30;2.13;;;1.20;99.90;;;;;;6199564;28;20133;-77
2023/04/06 06:11:52;;;;;;;5.88;2.88;;;1.30;99.90;;;;;;6199876;28;20050;-78
2023/04/06 06:14:55;;;;;;;4.57;2.63;;;1.60;99.90;;;;;;6199099;28;20137;-77
2023/04/06 06:17:56;;;;;;;3.10;2.88;;;1.80;99.90;;;;;;6202100;28;20056;-80
2023/04/06 06:20:58;;;;;;;2.97;2.78;;;2.00;99.90;;;;;;6216926;28;20088;-78
2023/04/06 06:24:00;;;;;;;6.78;3.03;;;2.30;99.90;;;;;;6222694;28;20124;-78
2023/04/06 06:27:03;;;;;;;2.72;2.45;;;2.60;99.90;;;;;;6223749;28;20034;-77
2023/04/06 06:30:06;;;;;;;3.22;2.70;;;2.80;99.90;;;;;;6223336;28;20452;-78
2023/04/06 06:33:08;;;;;;;2.20;2.10;;;3.10;99.90;;;;;;6223755;28;20139;-78
2023/04/06 06:36:10;;;;;;;2.03;1.92;;;3.30;99.90;;;;;;6223459;28;20521;-77
2023/04/06 06:39:12;;;;;;;3.10;2.78;;;3.60;99.90;;;;;;6223577;28;20070;-77
2023/04/06 06:42:15;;;;;;;2.58;2.38;;;3.80;99.90;;;;;;6223366;28;20065;-76
2023/04/06 06:45:17;;;;;;;3.78;2.63;;;4.10;99.90;;;;;;6235266;28;20100;-78
2023/04/06 06:48:18;;;;;;;3.08;2.78;;;4.40;99.90;;;;;;6220496;28;20070;-78
2023/04/06 06:51:20;;;;;;;2.40;2.30;;;4.60;99.90;;;;;;6206000;28;20133;-78
2023/04/06 06:54:22;;;;;;;2.55;2.35;;;4.90;99.90;;;;;;6198563;28;20049;-77
2023/04/06 06:57:26;;;;;;;2.40;2.13;;;5.20;99.90;;;;;;6198314;28;20531;-78
2023/04/06 07:00:28;;;;;;;3.10;2.80;;;5.60;99.90;;;;;;6198797;28;20108;-77
2023/04/06 07:03:30;;;;;;;3.63;2.28;;;5.90;99.90;;;;;;6197732;28;20130;-77
2023/04/06 07:06:32;;;;;;;4.25;2.97;;;6.20;99.90;;;;;;6198409;28;20054;-77
2023/04/06 07:09:34;;;;;;;3.10;2.30;;;6.60;99.90;;;;;;6198773;28;20125;-77
2023/04/06 07:12:37;;;;;;;4.55;2.90;;;6.80;99.30;;;;;;6196197;28;20505;-78
2023/04/06 07:15:39;;;;;;;2.30;2.20;;;7.20;99.10;;;;;;6198039;28;20053;-76
2023/04/06 07:18:41;;;;;;;2.65;2.45;;;7.60;98.50;;;;;;6213748;23;20519;-84
2023/04/06 07:21:42;;;;;;;3.28;2.28;;;7.90;98.20;;;;;;6203807;28;20078;-84
2023/04/06 07:24:44;;;;;;;2.28;2.08;;;8.30;97.70;;;;;;6204296;28;20053;-85
2023/04/06 07:27:47;;;;;;;3.90;2.53;;;8.70;97.10;;;;;;6204228;28;20053;-82
2023/04/06 07:30:50;;;;;;;3.13;2.13;;;9.40;96.40;;;;;;6178947;28;20125;-83
2023/04/06 07:33:52;;;;;;;2.28;2.17;;;10.30;95.00;;;;;;6182494;28;20130;-83
2023/04/06 07:36:54;;;;;;;2.22;2.10;;;11.00;93.50;;;;;;6186887;28;20133;-86
2023/04/06 07:39:56;;;;;;;2.05;1.83;;;11.70;92.20;;;;;;6186726;28;20045;-85
2023/04/06 07:43:00;;;;;;;2.95;2.65;;;12.20;90.70;;;;;;6186638;28;20120;-84
2023/04/06 07:46:01;;;;;;;2.15;1.95;;;12.80;87.80;;;;;;6181728;28;20075;-83
2023/04/06 07:49:04;;;;;;;2.53;1.92;;;13.40;85.60;;;;;;6182162;28;20176;-83
2023/04/06 07:52:05;;;;;;;2.05;1.95;;;14.10;81.90;;;;;;6185403;28;20047;-82
2023/04/06 07:55:08;;;;;;;2.15;2.00;;;14.40;78.70;;;;;;6185869;28;20137;-84
2023/04/06 07:58:11;;;;;;;2.10;2.00;;;14.80;76.40;;;;;;6186740;28;20133;-84
2023/04/06 08:01:13;;;;;;;3.72;2.63;;;15.00;73.50;;;;;;6187356;28;20063;-83
2023/04/06 08:04:14;;;;;;;1.95;1.70;;;15.40;72.10;;;;;;6182228;28;20138;-83
2023/04/06 08:07:16;;;;;;;1.92;1.83;;;15.70;69.10;;;;;;6185849;28;20134;-86
2023/04/06 08:10:18;;;;;;;1.88;1.77;;;16.00;67.90;;;;;;6191356;28;20066;-85
2023/04/06 08:13:21;;;;;;;1.90;1.80;;;16.40;66.20;;;;;;6185559;28;20181;-82
2023/04/06 08:16:23;;;;;;;2.50;2.30;;;16.40;64.00;;;;;;6189825;28;20078;-85
2023/04/06 08:19:25;;;;;;;2.28;2.08;;;16.50;63.80;;;;;;6182870;28;20109;-85
2023/04/06 08:22:27;;;;;;;1.90;1.73;;;16.60;62.80;;;;;;6185095;28;20249;-85
2023/04/06 08:25:29;;;;;;;4.50;1.83;;;16.80;61.70;;;;;;6185796;28;20576;-83
2023/04/06 08:28:34;;;;;;;2.28;1.80;;;16.80;61.10;;;;;;6187784;28;20061;-82
2023/04/06 08:31:36;;;;;;;1.83;1.73;;;16.90;60.10;;;;;;6183238;28;20382;-83
2023/04/06 08:34:38;;;;;;;2.10;1.90;;;16.70;58.90;;;;;;6185003;28;20066;-85
2023/04/06 08:37:40;;;;;;;2.13;1.92;;;16.50;59.10;;;;;;6184059;28;20184;-84
2023/04/06 08:40:44;;;;;;;5.43;2.65;;;16.30;59.10;;;;;;6185026;28;20523;-84
2023/04/06 08:43:49;;;;;;;2.40;2.00;;;16.20;59.50;;;;;;6183018;28;20047;-84
2023/04/06 08:46:52;;;;;;;11.80;6.70;;;16.20;59.30;;;;;;6181794;28;20216;-86
2023/04/06 08:49:55;;;;;;;7.95;5.78;;;16.30;59.10;;;;;;6185170;28;20466;-83
2023/04/06 08:52:58;;;;;;;6.95;6.25;;;16.50;58.40;;;;;;6188902;28;20058;-85
2023/04/06 08:56:01;;;;;;;10.70;6.97;;;16.50;57.30;;;;;;6183255;28;20072;-86
2023/04/06 08:59:04;;;;;;;6.72;5.07;;;16.60;56.70;;;;;;6184095;28;20132;-84
2023/04/06 09:02:07;;;;;;;10.25;5.10;;;16.90;56.40;;;;;;6184978;28;20203;-86
2023/04/06 09:05:10;;;;;;;7.28;4.43;;;17.30;55.80;;;;;;6184993;28;20062;-85
2023/04/06 09:08:12;;;;;;;4.70;4.28;;;17.80;54.90;;;;;;6181974;28;20659;-85
2023/04/06 09:11:14;;;;;;;4.78;4.38;;;18.10;53.90;;;;;;6180526;28;20050;-84
2023/04/06 09:14:18;;;;;;;6.20;3.78;;;18.50;53.00;;;;;;6187428;28;20062;-86
2023/04/06 09:17:24;;;;;;;5.30;4.28;;;18.90;51.30;;;;;;6188647;28;20366;-83
2023/04/06 09:20:28;;;;;;;4.57;4.10;;;18.80;51.60;;;;;;6188048;28;20050;-84
2023/04/06 09:23:30;;;;;;;5.32;4.82;;;18.90;51.10;;;;;;6187215;28;20110;-83
2023/04/06 09:26:33;;;;;;;5.57;5.07;;;19.00;50.50;;;;;;6190683;28;20069;-83
2023/04/06 09:29:36;;;;;;;5.35;4.70;;;19.10;50.40;;;;;;6189574;28;20042;-83
2023/04/06 09:32:50;;;;;;;6.55;4.50;;;19.20;49.50;;;;;;6186013;28;20073;-85
2023/04/06 09:35:51;;;;;;;6.45;4.50;;;19.40;49.20;;;;;;6186380;28;20568;-83
2023/04/06 09:38:55;;;;;;;6.13;5.53;;;19.50;48.80;;;;;;6185349;28;20211;-83
2023/04/06 09:41:57;;;;;;;4.75;4.28;;;19.40;48.40;;;;;;6186721;28;20108;-83
2023/04/06 09:45:00;;;;;;;5.75;5.25;;;19.10;48.60;;;;;;6188424;28;20054;-84
2023/04/06 09:48:03;;;;;;;6.05;4.55;;;19.00;48.60;;;;;;6187758;28;20066;-84
2023/04/06 09:51:07;;;;;;;5.65;5.05;;;18.90;48.40;;;;;;6187431;28;20114;-83
2023/04/06 09:54:12;;;;;;;5.85;5.15;;;18.40;47.50;;;;;;6193333;28;20555;-84
2023/04/06 09:57:22;;;;;;;6.15;5.63;;;18.00;47.80;;;;;;6184023;28;20149;-85
2023/04/06 10:00:27;;;;;;;4.65;4.22;;;17.70;48.50;;;;;;6187768;28;20081;-87
2023/04/06 10:03:39;;;;;;;4.63;4.22;;;17.80;49.50;;;;;;6180208;28;20735;-85
2023/04/06 10:06:41;;;;;;;5.50;4.90;;;17.90;49.60;;;;;;6180534;28;20420;-84
2023/04/06 10:09:46;;;;;;;5.95;5.35;;;18.00;49.20;;;;;;6187641;28;20431;-86
2023/04/06 10:12:49;;;;;;;5.47;4.70;;;18.10;48.90;;;;;;6180201;28;20089;-83
2023/04/06 10:15:53;;;;;;;4.82;4.03;;;18.40;48.20;;;;;;6182490;28;20448;-85
2023/04/06 10:19:00;;;;;;;4.95;4.53;;;18.40;48.00;;;;;;6181537;28;20316;-85
2023/04/06 10:22:03;;;;;;;4.70;4.30;;;18.60;47.70;;;;;;6182335;28;20050;-85
2023/04/06 10:25:06;;;;;;;4.18;3.78;;;18.60;47.80;;;;;;6182546;28;21208;-84
2023/04/06 10:28:09;;;;;;;3.92;3.45;;;18.90;47.80;;;;;;6186656;28;20097;-86
2023/04/06 10:31:12;;;;;;;6.00;4.30;;;19.20;47.60;;;;;;6180544;28;20062;-85
2023/04/06 10:34:14;;;;;;;4.65;4.25;;;19.30;46.60;;;;;;6180007;28;20125;-86
2023/04/06 10:37:18;;;;;;;6.47;3.72;;;19.20;46.20;;;;;;6186045;28;20900;-85
2023/04/06 10:40:25;;;;;;;4.40;3.90;;;19.20;45.90;;;;;;6185610;28;20169;-86
2023/04/06 10:43:27;;;;;;;7.05;4.15;;;19.50;46.10;;;;;;6183536;28;20709;-86
2023/04/06 10:46:32;;;;;;;5.10;4.53;;;19.60;45.80;;;;;;6186373;28;20453;-84
2023/04/06 10:49:34;;;;;;;4.90;4.40;;;19.70;44.90;;;;;;6183620;28;20110;-85
2023/04/06 10:52:35;;;;;;;4.68;4.28;;;19.70;44.10;;;;;;6182068;28;20481;-86
2023/04/06 10:55:40;;;;;;;6.95;5.22;;;19.60;43.80;;;;;;6183154;28;20091;-85
2023/04/06 10:58:47;;;;;;;4.45;4.05;;;19.30;43.70;;;;;;6185450;28;20076;-85
2023/04/06 11:01:50;;;;;;;5.07;3.83;;;19.50;43.50;;;;;;6189843;28;20412;-83
2023/04/06 11:04:57;;;;;;;6.07;4.53;;;20.10;43.00;;;;;;6185855;28;20419;-85
2023/04/06 11:07:58;;;;;;;5.25;4.30;;;20.30;41.80;;;;;;6186057;28;20046;-85
2023/04/06 11:11:08;;;;;;;4.55;4.15;;;20.40;41.70;;;;;;6188477;28;20204;-83
2023/04/06 11:14:11;;;;;;;8.05;5.85;;;20.20;40.20;;;;;;6191849;28;20053;-83
2023/04/06 11:17:14;;;;;;;3.47;3.00;;;20.20;40.80;;;;;;6196896;28;20781;-83
2023/04/06 11:20:17;;;;;;;8.52;7.72;;;20.30;40.40;;;;;;6194408;28;20057;-83
2023/04/06 11:23:25;;;;;;;4.03;3.63;;;20.30;40.30;;;;;;6194381;28;20051;-83
2023/04/06 11:26:27;;;;;;;11.00;10.10;;;20.10;39.80;;;;;;6191622;28;20581;-84
2023/04/06 11:29:30;;;;;;;32.65;30.13;;;19.90;39.60;;;;;;6189266;28;20046;-83
2023/04/06 11:32:41;;;;;;;12.15;11.15;;;19.90;39.80;;;;;;6193635;28;20051;-84
2023/04/06 11:35:43;;;;;;;9.05;8.15;;;20.00;39.50;;;;;;6193382;28;20042;-83
2023/04/06 11:38:45;;;;;;;10.13;6.38;;;20.20;39.80;;;;;;6193176;28;20053;-84
2023/04/06 11:41:49;;;;;;;7.93;5.93;;;20.30;39.60;;;;;;6197137;28;20054;-83
2023/04/06 11:44:52;;;;;;;6.00;4.60;;;20.50;39.60;;;;;;6188720;28;20413;-85
2023/04/06 11:48:00;;;;;;;5.75;5.25;;;20.80;39.30;;;;;;6191040;28;20062;-85
2023/04/06 11:51:04;;;;;;;4.88;4.43;;;20.80;39.20;;;;;;6193056;28;20055;-84
2023/04/06 11:54:06;;;;;;;5.75;4.80;;;21.00;39.10;;;;;;6207825;28;20225;-84
2023/04/06 11:57:09;;;;;;;4.78;4.45;;;21.10;39.10;;;;;;6196356;28;20057;-86
2023/04/06 12:00:13;;;;;;;5.80;3.78;;;21.00;38.40;;;;;;6195914;28;20113;-85
2023/04/06 12:03:16;;;;;;;4.25;3.78;;;20.30;38.30;;;;;;6192618;28;20140;-85
2023/04/06 12:06:18;;;;;;;3.90;3.53;;;19.90;38.20;;;;;;6192495;28;20047;-85
2023/04/06 12:09:20;;;;;;;4.95;3.70;;;19.20;38.70;;;;;;6192994;28;20057;-84
2023/04/06 12:12:22;;;;;;;5.05;3.90;;;19.10;38.90;;;;;;6187557;28;20074;-86
2023/04/06 12:15:24;;;;;;;6.05;4.60;;;19.30;39.40;;;;;;6187989;28;20098;-86
2023/04/06 12:18:27;;;;;;;5.47;4.25;;;19.60;38.40;;;;;;6189003;28;20051;-86
2023/04/06 12:21:30;;;;;;;6.85;5.20;;;19.60;38.10;;;;;;6188406;28;20049;-85
2023/04/06 12:24:32;;;;;;;4.45;4.05;;;19.90;38.10;;;;;;6185223;28;20046;-84
2023/04/06 12:27:34;;;;;;;4.93;4.45;;;19.60;37.80;;;;;;6187981;28;20114;-84
2023/04/06 12:30:36;;;;;;;4.50;4.10;;;20.00;37.60;;;;;;6187596;28;20529;-85
2023/04/06 12:33:40;;;;;;;4.85;4.43;;;20.30;37.40;;;;;;6188652;28;20525;-85
2023/04/06 12:36:41;;;;;;;5.30;4.50;;;20.50;37.40;;;;;;6187302;28;20058;-84
2023/04/06 12:39:44;;;;;;;5.07;4.63;;;20.20;36.30;;;;;;6186030;28;20077;-84
2023/04/06 12:42:46;;;;;;;5.35;4.28;;;19.80;36.80;;;;;;6184316;28;20061;-86
2023/04/06 12:45:48;;;;;;;5.25;4.68;;;19.90;36.90;;;;;;6185339;28;20233;-85
2023/04/06 12:48:53;;;;;;;7.38;4.72;;;20.00;36.40;;;;;;6184103;28;20181;-85
2023/04/06 12:51:55;;;;;;;4.30;3.90;;;20.20;36.50;;;;;;6190360;28;20073;-85
2023/04/06 12:54:58;;;;;;;5.15;4.65;;;20.60;36.00;;;;;;6180819;28;20049;-84
2023/04/06 12:58:00;;;;;;;4.88;4.32;;;20.00;35.00;;;;;;6181920;28;20073;-85
2023/04/06 13:01:06;;;;;;;4.60;4.20;;;19.70;35.80;;;;;;6184017;28;20074;-82
2023/04/06 13:04:09;;;;;;;4.38;3.97;;;19.90;34.90;;;;;;6185819;28;20050;-83
2023/04/06 13:07:11;;;;;;;3.90;3.47;;;19.70;34.30;;;;;;6201906;28;20048;-84
2023/04/06 13:10:13;;;;;;;4.03;3.72;;;19.50;33.90;;;;;;6185871;28;20524;-85
2023/04/06 13:13:15;;;;;;;8.50;7.70;;;19.40;34.00;;;;;;6181326;28;20130;-82
2023/04/06 13:16:16;;;;;;;5.38;4.88;;;19.60;34.30;;;;;;6183961;28;20086;-82
2023/04/06 13:19:20;;;;;;;3.80;3.50;;;19.60;34.20;;;;;;6183602;28;20133;-82
2023/04/06 13:22:21;;;;;;;4.70;4.30;;;19.70;33.80;;;;;;6190444;28;20131;-82
2023/04/06 13:25:23;;;;;;;4.60;4.15;;;19.20;33.60;;;;;;6188627;28;20563;-82
2023/04/06 13:28:25;;;;;;;5.45;3.30;;;19.20;33.60;;;;;;6189265;28;20050;-81
2023/04/06 13:31:27;;;;;;;4.78;4.38;;;19.50;34.00;;;;;;6192954;28;20284;-80
2023/04/06 13:34:30;;;;;;;4.15;3.85;;;19.70;33.60;;;;;;6192239;28;20097;-83
2023/04/06 13:37:32;;;;;;;3.67;2.90;;;19.80;33.50;;;;;;6189485;28;20054;-81
2023/04/06 13:40:34;;;;;;;3.60;3.30;;;19.80;33.60;;;;;;6189548;28;20153;-84
2023/04/06 13:43:36;;;;;;;4.53;3.35;;;19.70;33.50;;;;;;6188612;28;20069;-82
2023/04/06 13:46:38;;;;;;;6.82;4.97;;;19.40;33.70;;;;;;6192082;28;20066;-81
2023/04/06 13:49:41;;;;;;;3.90;3.60;;;19.50;34.30;;;;;;6186823;28;20046;-81
2023/04/06 13:52:43;;;;;;;6.68;6.18;;;19.60;34.10;;;;;;6191711;28;20469;-83
2023/04/06 13:55:52;;;;;;;5.43;4.18;;;19.80;34.30;;;;;;6196140;28;20050;-83
2023/04/06 14:02:59;;;;;;;6.18;5.25;;;19.50;34.00;;;;;;6159051;28;20111;-83
2023/04/06 14:06:53;;;;;;;3.83;3.47;;;19.30;34.60;;;;;;6171623;28;20453;-83
2023/04/06 14:10:23;;;;;;;14.82;12.30;;;19.20;35.10;;;;;;6081650;29;20036;-81
2023/04/06 14:21:06;;;;;;;5.57;5.03;;;18.80;35.60;;;;;;6197442;28;22703;-83
2023/04/06 14:24:09;;;;;;;7.55;6.68;;;18.40;36.40;;;;;;6203172;28;20228;-82
2023/04/06 14:34:33;;;;;;;6.57;5.27;;;18.00;37.30;;;;;;6192317;28;20121;-86
2023/04/06 14:37:44;;;;;;;5.95;5.10;;;18.10;37.30;;;;;;6184349;28;20055;-85
2023/04/06 14:40:58;;;;;;;5.93;4.05;;;18.10;37.40;;;;;;6178442;28;20047;-85
2023/04/06 14:44:01;;;;;;;5.10;3.97;;;17.80;37.50;;;;;;6190884;28;20145;-83
2023/04/06 14:47:05;;;;;;;5.22;4.20;;;17.50;37.80;;;;;;6193434;28;20076;-81
2023/04/06 14:50:30;;;;;;;5.47;4.72;;;17.50;38.30;;;;;;6185921;28;20047;-82
2023/04/06 14:57:45;;;;;;;5.25;4.20;;;17.30;38.50;;;;;;6194676;28;20046;-83
2023/04/06 15:04:49;;;;;;;5.75;3.88;;;17.00;39.10;;;;;;6116741;29;20129;-83
2023/04/06 15:11:53;;;;;;;5.40;4.90;;;16.80;40.00;;;;;;6116090;29;20163;-82
2023/04/06 15:14:56;;;;;;;5.38;4.88;;;16.80;39.90;;;;;;6117693;28;20065;-82
2023/04/06 15:17:57;;;;;;;4.40;4.00;;;16.70;39.90;;;;;;6190525;28;20139;-82
2023/04/06 15:21:01;;;;;;;4.95;4.45;;;16.70;40.00;;;;;;6197038;28;20063;-82
2023/04/06 15:24:06;;;;;;;6.22;4.45;;;16.50;40.40;;;;;;6196275;28;20049;-82
2023/04/06 15:27:07;;;;;;;5.15;4.20;;;16.40;40.70;;;;;;6191668;28;20057;-84
2023/04/06 15:30:10;;;;;;;5.18;4.68;;;16.40;41.00;;;;;;6194192;28;20047;-84
2023/04/06 15:33:12;;;;;;;5.63;5.03;;;16.30;41.30;;;;;;6193402;28;20074;-83
2023/04/06 15:36:24;;;;;;;10.15;5.63;;;16.30;41.70;;;;;;6203307;28;20082;-83
2023/04/06 15:39:26;;;;;;;6.15;5.43;;;16.30;42.20;;;;;;6193353;28;20054;-84
2023/04/06 15:42:27;;;;;;;5.63;5.13;;;16.10;42.30;;;;;;6196234;28;20065;-82
2023/04/06 15:45:29;;;;;;;6.03;5.43;;;16.10;42.60;;;;;;6190626;28;20078;-83
2023/04/06 15:48:31;;;;;;;8.50;6.25;;;16.20;42.80;;;;;;6193293;28;20052;-83
2023/04/06 15:51:36;;;;;;;5.95;5.38;;;16.00;43.00;;;;;;6190323;28;20047;-83
2023/04/06 15:54:39;;;;;;;7.93;5.82;;;16.00;43.40;;;;;;6191175;28;20046;-83
2023/04/06 15:57:41;;;;;;;6.55;5.43;;;15.90;44.20;;;;;;6191689;28;20467;-82
2023/04/06 16:00:43;;;;;;;5.80;5.22;;;15.90;44.90;;;;;;6191119;28;20470;-84
2023/04/06 16:03:46;;;;;;;8.70;5.60;;;16.00;44.90;;;;;;6192085;28;20397;-83
2023/04/06 16:06:49;;;;;;;5.70;4.40;;;16.10;44.70;;;;;;6194537;28;20062;-83
2023/04/06 16:09:51;;;;;;;7.07;5.18;;;16.00;44.70;;;;;;6194658;28;20054;-83
2023/04/06 16:12:53;;;;;;;6.05;5.45;;;15.90;44.80;;;;;;6191809;28;20051;-83
2023/04/06 16:15:55;;;;;;;11.45;5.53;;;15.80;45.00;;;;;;6194266;28;20077;-83
2023/04/06 16:18:56;;;;;;;5.25;4.75;;;15.60;45.00;;;;;;6195973;28;20053;-84
2023/04/06 16:21:59;;;;;;;5.65;4.18;;;15.70;45.20;;;;;;6196659;28;20350;-83
2023/04/06 16:25:01;;;;;;;15.90;14.30;;;15.60;45.50;;;;;;6201598;28;20129;-83